Time;durP1;ratioP1;P1;durP2;ratioP2;P2;SDS_P1;SDS_P2;PMS_P1;PMS_P2;Temp;Humidity;BMP_temperature;BMP_pressure;BME280_temperature;BME280_humidity;BME280_pressure;Samples;Min_cycle;Max_cycle;Signal;HPM_P1;HPM_P2
2022/09/26 00:00:08;;;;;;;3.78;2.75;;;12.70;99.90;;;;;;4961274;28;20357;-75
2022/09/26 00:02:33;;;;;;;5.95;3.33;;;12.70;99.90;;;;;;4948888;28;20034;-74
2022/09/26 00:05:01;;;;;;;7.05;3.10;;;12.70;99.90;;;;;;4959949;28;20031;-75
2022/09/26 00:07:29;;;;;;;8.05;3.70;;;12.60;99.90;;;;;;4951777;28;20027;-75
2022/09/26 00:09:54;;;;;;;6.25;2.90;;;12.70;99.90;;;;;;4961588;28;20098;-74
2022/09/26 00:12:22;;;;;;;5.65;2.70;;;12.70;99.90;;;;;;4957489;28;20031;-74
2022/09/26 00:14:48;;;;;;;3.75;2.85;;;12.70;99.90;;;;;;4955882;28;20472;-74
2022/09/26 00:17:14;;;;;;;6.00;3.00;;;12.60;99.90;;;;;;4960995;28;20126;-74
2022/09/26 00:19:39;;;;;;;4.07;3.13;;;12.50;99.90;;;;;;4959379;28;20039;-74
2022/09/26 00:22:05;;;;;;;4.93;3.00;;;12.40;99.90;;;;;;4964410;28;20090;-75
2022/09/26 00:24:30;;;;;;;3.97;3.28;;;12.40;99.90;;;;;;4958816;28;20190;-74
2022/09/26 00:26:58;;;;;;;5.47;3.60;;;12.30;99.90;;;;;;4961746;28;20035;-75
2022/09/26 00:29:24;;;;;;;6.68;3.88;;;12.30;99.90;;;;;;4956769;28;20031;-75
2022/09/26 00:31:49;;;;;;;8.00;4.28;;;12.30;99.90;;;;;;4966769;28;20069;-75
2022/09/26 00:34:17;;;;;;;5.97;4.13;;;12.30;99.90;;;;;;4965784;28;20038;-76
2022/09/26 00:36:47;;;;;;;10.43;4.60;;;12.30;99.90;;;;;;4957987;28;20693;-75
2022/09/26 00:39:14;;;;;;;5.78;4.55;;;12.30;99.90;;;;;;4969883;28;20030;-75
2022/09/26 00:41:40;;;;;;;4.32;3.92;;;12.40;99.90;;;;;;4954006;28;20149;-74
2022/09/26 00:44:40;;;;;;;6.82;4.50;;;12.40;99.90;;;;;;4959609;28;20540;-76
2022/09/26 00:47:17;;;;;;;6.20;4.45;;;12.30;99.90;;;;;;4958521;28;20496;-74
2022/09/26 00:49:43;;;;;;;6.30;3.95;;;12.20;99.90;;;;;;4965780;28;20058;-74
2022/09/26 00:52:11;;;;;;;6.60;3.92;;;12.20;99.90;;;;;;4960127;28;20109;-76
2022/09/26 00:54:39;;;;;;;6.72;4.65;;;12.20;99.90;;;;;;4968883;28;20034;-76
2022/09/26 00:57:11;;;;;;;6.57;4.47;;;12.30;99.90;;;;;;4967528;28;20023;-74
2022/09/26 00:59:42;;;;;;;5.07;4.13;;;12.30;99.90;;;;;;4951489;28;20031;-74
2022/09/26 01:02:08;;;;;;;5.22;4.57;;;12.30;99.90;;;;;;4964686;28;20033;-78
2022/09/26 01:04:38;;;;;;;7.80;4.72;;;12.30;99.90;;;;;;4958951;28;20027;-75
2022/09/26 01:07:10;;;;;;;6.75;4.20;;;12.30;99.90;;;;;;4966955;28;20117;-75
2022/09/26 01:09:38;;;;;;;7.80;4.45;;;12.30;99.90;;;;;;4967508;28;20027;-75
2022/09/26 01:12:07;;;;;;;5.25;4.75;;;12.30;99.90;;;;;;4961377;28;20058;-76
2022/09/26 01:14:34;;;;;;;11.15;4.55;;;12.30;99.90;;;;;;4960594;28;20031;-74
2022/09/26 01:17:00;;;;;;;9.23;4.60;;;12.40;99.90;;;;;;4968593;28;20412;-77
2022/09/26 01:20:02;;;;;;;6.90;4.60;;;12.40;99.90;;;;;;4967533;28;20023;-75
2022/09/26 01:22:31;;;;;;;10.87;3.87;;;12.40;99.90;;;;;;4958857;28;20031;-74
2022/09/26 01:25:10;;;;;;;6.75;4.03;;;12.50;99.90;;;;;;4944715;28;20259;-75
2022/09/26 01:28:03;;;;;;;4.95;3.90;;;12.50;99.90;;;;;;4964209;28;20039;-74
2022/09/26 01:30:47;;;;;;;7.25;3.67;;;12.50;99.90;;;;;;4955435;28;20133;-75
2022/09/26 01:33:15;;;;;;;;;;;12.60;99.90;;;;;;4965010;28;20023;-75
2022/09/26 01:36:02;;;;;;;5.80;3.70;;;12.50;99.90;;;;;;4952995;28;19921;-75
2022/09/26 01:38:59;;;;;;;11.20;4.10;;;12.50;99.90;;;;;;4976725;28;20036;-76
2022/09/26 01:41:46;;;;;;;5.18;4.63;;;12.60;99.90;;;;;;4971368;28;20029;-74
2022/09/26 01:44:21;;;;;;;7.10;4.30;;;12.60;99.90;;;;;;4963434;28;20027;-75
2022/09/26 01:47:01;;;;;;;8.82;4.35;;;12.70;99.90;;;;;;4969650;28;20037;-75
2022/09/26 01:49:39;;;;;;;8.45;3.95;;;12.70;99.90;;;;;;4966987;28;20042;-75
2022/09/26 01:52:25;;;;;;;4.65;3.70;;;12.70;99.90;;;;;;4968685;28;20041;-76
2022/09/26 01:55:02;;;;;;;11.70;4.50;;;12.70;99.90;;;;;;4945799;28;20032;-75
2022/09/26 01:57:40;;;;;;;8.60;3.97;;;12.70;99.90;;;;;;4953176;28;20026;-75
2022/09/26 02:00:08;;;;;;;4.90;3.85;;;12.70;99.90;;;;;;4952050;28;20042;-75
2022/09/26 02:02:40;;;;;;;4.35;3.42;;;12.80;99.90;;;;;;4961961;28;20619;-75
2022/09/26 02:05:15;;;;;;;4.22;3.83;;;12.80;99.90;;;;;;4960431;28;20030;-75
2022/09/26 02:07:44;;;;;;;6.53;3.63;;;12.90;99.90;;;;;;4961398;28;20046;-76
2022/09/26 02:10:33;;;;;;;7.30;3.40;;;12.90;99.90;;;;;;4965489;28;20031;-76
2022/09/26 02:13:07;;;;;;;7.63;3.72;;;12.80;99.90;;;;;;4964023;28;20057;-76
2022/09/26 02:15:35;;;;;;;4.50;3.25;;;12.80;99.90;;;;;;4964401;28;20027;-75
2022/09/26 02:18:26;;;;;;;3.97;3.50;;;12.70;99.90;;;;;;4963004;28;20033;-76
2022/09/26 02:20:59;;;;;;;5.30;3.75;;;12.70;99.90;;;;;;4965299;28;20483;-75
2022/09/26 02:23:27;;;;;;;4.90;3.53;;;12.70;99.90;;;;;;4964651;28;20019;-74
2022/09/26 02:25:56;;;;;;;4.68;3.67;;;12.70;99.90;;;;;;4949457;28;20112;-76
2022/09/26 02:28:24;;;;;;;7.88;3.70;;;12.70;99.90;;;;;;4965449;28;20023;-75
2022/09/26 02:30:53;;;;;;;9.07;4.00;;;12.70;99.90;;;;;;4962982;28;20082;-76
2022/09/26 02:33:19;;;;;;;6.50;3.55;;;12.60;99.90;;;;;;4962827;28;20063;-77
2022/09/26 02:35:56;;;;;;;8.68;3.60;;;12.60;99.90;;;;;;4950603;28;20435;-75
2022/09/26 02:38:28;;;;;;;10.13;4.38;;;12.60;99.90;;;;;;4962991;28;20444;-73
2022/09/26 02:41:06;;;;;;;4.70;3.75;;;12.70;99.90;;;;;;4952866;28;20035;-75
2022/09/26 02:44:06;;;;;;;6.10;4.25;;;12.60;99.90;;;;;;4944303;28;20460;-76
2022/09/26 02:47:08;;;;;;;4.65;3.75;;;12.70;99.90;;;;;;4949441;28;20046;-75
2022/09/26 02:49:57;;;;;;;3.85;3.38;;;12.60;99.90;;;;;;4962601;28;20035;-72
2022/09/26 02:52:47;;;;;;;9.32;3.95;;;12.50;99.90;;;;;;4960910;28;20042;-74
2022/09/26 02:55:20;;;;;;;6.38;3.53;;;12.50;99.90;;;;;;4966633;28;20357;-75
2022/09/26 02:58:02;;;;;;;4.65;4.10;;;12.60;99.90;;;;;;4964768;28;20113;-76
2022/09/26 03:00:46;;;;;;;5.93;3.80;;;12.50;99.90;;;;;;4970011;28;20015;-76
2022/09/26 03:03:33;;;;;;;5.30;3.85;;;12.40;99.90;;;;;;4963765;28;20046;-76
2022/09/26 03:06:05;;;;;;;8.90;3.70;;;12.50;99.90;;;;;;4965157;28;20098;-75
2022/09/26 03:08:38;;;;;;;6.88;3.63;;;12.50;99.90;;;;;;4945175;28;20337;-75
2022/09/26 03:11:05;;;;;;;;;;;12.50;99.90;;;;;;4963849;28;20035;-76
2022/09/26 03:13:39;;;;;;;8.45;3.90;;;12.50;99.90;;;;;;4963552;28;20256;-76
2022/09/26 03:16:08;;;;;;;5.38;4.00;;;12.50;99.90;;;;;;4963725;28;20077;-76
2022/09/26 03:18:44;;;;;;;6.88;3.78;;;12.60;99.90;;;;;;4949890;28;20112;-76
2022/09/26 03:21:10;;;;;;;5.97;4.20;;;12.60;99.90;;;;;;4963977;28;20066;-75
2022/09/26 03:23:36;;;;;;;6.95;4.45;;;12.60;99.90;;;;;;4958894;28;20055;-75
2022/09/26 03:26:08;;;;;;;6.95;4.20;;;12.50;99.90;;;;;;4954684;28;20027;-76
2022/09/26 03:28:35;;;;;;;5.63;4.10;;;12.60;99.90;;;;;;4963236;28;20695;-76
2022/09/26 03:31:00;;;;;;;6.88;4.32;;;12.60;99.90;;;;;;4961482;28;20126;-77
2022/09/26 03:33:28;;;;;;;14.90;4.10;;;12.60;99.90;;;;;;4968549;28;20568;-77
2022/09/26 03:35:54;;;;;;;9.98;4.47;;;12.50;99.90;;;;;;4966255;28;20058;-76
2022/09/26 03:38:20;;;;;;;11.27;4.38;;;12.60;99.90;;;;;;4964288;28;20027;-75
2022/09/26 03:40:48;;;;;;;5.45;3.70;;;12.60;99.90;;;;;;4964518;28;20023;-75
2022/09/26 03:43:13;;;;;;;6.25;3.50;;;12.70;99.90;;;;;;4967952;28;20022;-75
2022/09/26 03:45:46;;;;;;;8.02;4.13;;;12.70;99.90;;;;;;4967107;28;20081;-77
2022/09/26 03:48:11;;;;;;;6.43;4.10;;;12.60;99.90;;;;;;4963198;28;20030;-77
2022/09/26 03:50:37;;;;;;;9.48;3.80;;;12.70;99.90;;;;;;4953786;28;20034;-76
2022/09/26 03:53:02;;;;;;;5.80;3.33;;;12.60;99.90;;;;;;4967673;28;20023;-76
2022/09/26 03:55:30;;;;;;;3.80;3.50;;;12.60;99.90;;;;;;4961647;28;20019;-76
2022/09/26 03:57:59;;;;;;;5.05;3.10;;;12.70;99.90;;;;;;4951059;28;20350;-76
2022/09/26 04:00:25;;;;;;;11.10;3.08;;;12.70;99.90;;;;;;4964552;28;20019;-76
2022/09/26 04:02:52;;;;;;;3.50;2.88;;;12.80;99.90;;;;;;4961357;28;20039;-74
2022/09/26 04:05:20;;;;;;;5.18;3.03;;;12.80;99.90;;;;;;4962067;28;20033;-75
2022/09/26 04:07:46;;;;;;;6.88;3.65;;;12.80;99.90;;;;;;4961204;28;20031;-76
2022/09/26 04:10:15;;;;;;;3.50;2.75;;;12.80;99.90;;;;;;4950769;28;20031;-76
2022/09/26 04:12:44;;;;;;;4.97;2.63;;;12.80;99.90;;;;;;4963608;28;20039;-76
2022/09/26 04:15:10;;;;;;;5.30;2.70;;;12.70;99.90;;;;;;4961788;28;20027;-75
2022/09/26 04:17:35;;;;;;;3.20;2.17;;;12.80;99.90;;;;;;4963994;28;20110;-76
2022/09/26 04:20:03;;;;;;;3.50;2.40;;;12.80;99.90;;;;;;4966358;28;20039;-74
2022/09/26 04:22:29;;;;;;;6.88;2.75;;;12.90;99.90;;;;;;4954809;28;20030;-75
2022/09/26 04:24:57;;;;;;;3.67;2.20;;;12.80;99.90;;;;;;4963329;28;20600;-75
2022/09/26 04:27:27;;;;;;;3.90;2.60;;;12.90;99.90;;;;;;4960234;28;20476;-76
2022/09/26 04:29:53;;;;;;;4.32;1.95;;;12.90;99.90;;;;;;4965043;28;20090;-75
2022/09/26 04:32:18;;;;;;;3.72;2.10;;;12.90;99.90;;;;;;4962562;28;20038;-75
2022/09/26 04:34:46;;;;;;;4.93;2.30;;;12.90;99.90;;;;;;4963885;28;20027;-72
2022/09/26 04:37:12;;;;;;;10.38;2.53;;;13.00;99.90;;;;;;4964285;28;20054;-75
2022/09/26 04:39:40;;;;;;;10.23;2.67;;;12.80;99.90;;;;;;4967982;28;20046;-76
2022/09/26 04:42:06;;;;;;;6.85;2.63;;;12.90;99.90;;;;;;4965085;28;20397;-75
2022/09/26 04:44:34;;;;;;;5.82;2.75;;;12.90;99.90;;;;;;4965064;28;20031;-77
2022/09/26 04:47:00;;;;;;;7.78;2.78;;;12.90;99.90;;;;;;4957848;28;20570;-76
2022/09/26 04:49:28;;;;;;;7.03;2.70;;;12.80;99.90;;;;;;4949693;28;20047;-78
2022/09/26 04:51:54;;;;;;;5.43;2.10;;;12.70;99.90;;;;;;4963453;28;20027;-75
2022/09/26 04:54:20;;;;;;;11.00;3.00;;;12.80;99.90;;;;;;4961875;28;20028;-76
2022/09/26 04:56:46;;;;;;;5.75;2.47;;;12.80;99.90;;;;;;4963718;28;20086;-76
2022/09/26 04:59:14;;;;;;;6.78;2.70;;;12.80;99.90;;;;;;4962217;28;20333;-72
2022/09/26 05:01:39;;;;;;;3.67;2.38;;;12.70;99.90;;;;;;4963581;28;20061;-76
2022/09/26 05:04:08;;;;;;;6.32;2.95;;;12.70;99.90;;;;;;4961317;28;20037;-77
2022/09/26 05:06:34;;;;;;;3.85;2.60;;;12.80;99.90;;;;;;4953132;28;20034;-74
2022/09/26 05:09:00;;;;;;;8.80;3.00;;;12.70;99.90;;;;;;4957708;28;20046;-77
2022/09/26 05:11:25;;;;;;;5.45;2.35;;;12.70;99.90;;;;;;4962047;28;20150;-75
2022/09/26 05:13:53;;;;;;;2.65;2.08;;;12.70;99.90;;;;;;4949353;28;20022;-75
2022/09/26 05:16:22;;;;;;;11.52;2.92;;;12.70;99.90;;;;;;4963084;28;20050;-75
2022/09/26 05:18:50;;;;;;;3.83;2.60;;;12.70;99.90;;;;;;4963354;28;20041;-79
2022/09/26 05:21:16;;;;;;;5.65;2.30;;;12.70;99.90;;;;;;4944284;28;20345;-76
2022/09/26 05:26:37;;;;;;;10.57;5.00;;;12.60;99.90;;;;;;4958093;28;20082;-75
2022/09/26 05:29:05;;;;;;;4.95;2.58;;;12.80;99.90;;;;;;4955382;28;20121;-75
2022/09/26 05:31:42;;;;;;;6.32;3.00;;;12.80;99.90;;;;;;4962018;28;20042;-74
2022/09/26 05:34:09;;;;;;;5.60;2.78;;;12.80;99.90;;;;;;4962656;28;20018;-76
2022/09/26 05:36:35;;;;;;;4.40;2.95;;;12.90;99.90;;;;;;4963871;28;20023;-78
2022/09/26 05:39:02;;;;;;;6.43;2.50;;;12.90;99.90;;;;;;4947592;28;20038;-74
2022/09/26 05:41:30;;;;;;;6.50;2.33;;;12.80;99.90;;;;;;4954216;28;20063;-76
2022/09/26 05:43:58;;;;;;;8.60;2.90;;;12.80;99.90;;;;;;4956540;28;20035;-76
2022/09/26 05:46:25;;;;;;;5.93;2.92;;;12.80;99.90;;;;;;4968792;28;20441;-73
2022/09/26 05:48:51;;;;;;;9.50;3.72;;;12.70;99.90;;;;;;4960836;28;20116;-74
2022/09/26 05:51:19;;;;;;;6.32;2.60;;;12.80;99.90;;;;;;4963045;28;20108;-74
2022/09/26 05:53:46;;;;;;;4.45;2.70;;;12.80;99.90;;;;;;4967313;28;20019;-74
2022/09/26 05:56:14;;;;;;;3.75;2.53;;;12.70;99.90;;;;;;4963087;28;20027;-76
2022/09/26 05:58:40;;;;;;;9.77;2.70;;;12.70;99.90;;;;;;4965154;28;20046;-74
2022/09/26 06:01:06;;;;;;;6.90;2.55;;;12.70;99.90;;;;;;4967917;28;20762;-74
2022/09/26 06:03:37;;;;;;;7.82;3.03;;;12.80;99.90;;;;;;4961711;28;20034;-76
2022/09/26 06:06:12;;;;;;;4.82;2.50;;;12.80;99.90;;;;;;4958529;28;20042;-75
2022/09/26 06:08:38;;;;;;;4.45;2.30;;;12.80;99.90;;;;;;4975986;28;20026;-75
2022/09/26 06:11:11;;;;;;;5.15;2.60;;;12.80;99.90;;;;;;4950458;28;20038;-77
2022/09/26 06:13:37;;;;;;;3.28;2.30;;;12.70;99.90;;;;;;4963097;28;20034;-76
2022/09/26 06:16:05;;;;;;;8.85;2.88;;;12.60;99.90;;;;;;4967882;28;20035;-76
2022/09/26 06:18:37;;;;;;;7.78;2.40;;;12.70;99.90;;;;;;4962951;28;20495;-75
2022/09/26 06:21:10;;;;;;;6.25;2.67;;;12.80;99.90;;;;;;4962015;28;20039;-73
2022/09/26 06:23:39;;;;;;;7.60;3.97;;;12.70;99.90;;;;;;4961622;28;20058;-72
2022/09/26 06:26:09;;;;;;;6.25;2.85;;;12.70;99.90;;;;;;4967963;28;20038;-75
2022/09/26 06:28:35;;;;;;;7.70;3.55;;;12.70;99.90;;;;;;4964727;28;20031;-76
2022/09/26 06:31:08;;;;;;;10.45;2.60;;;12.70;99.90;;;;;;4964581;28;20100;-76
2022/09/26 06:33:34;;;;;;;6.63;2.85;;;12.80;99.90;;;;;;4967880;28;20033;-76
2022/09/26 06:36:08;;;;;;;8.35;3.35;;;12.80;99.90;;;;;;4969724;28;20065;-75
2022/09/26 06:38:37;;;;;;;6.28;3.25;;;12.90;99.90;;;;;;4968114;28;20018;-75
2022/09/26 06:41:03;;;;;;;8.35;2.88;;;12.90;99.90;;;;;;4969025;28;20029;-75
2022/09/26 06:43:30;;;;;;;4.78;2.75;;;12.90;99.90;;;;;;4967887;28;20023;-75
2022/09/26 06:45:55;;;;;;;6.35;3.03;;;12.90;99.90;;;;;;4958163;28;20162;-77
2022/09/26 06:48:21;;;;;;;10.40;3.03;;;12.90;99.90;;;;;;4964744;28;20382;-76
2022/09/26 06:50:58;;;;;;;5.93;2.70;;;12.70;99.90;;;;;;4966966;28;20330;-76
2022/09/26 06:53:24;;;;;;;6.20;2.60;;;12.50;99.90;;;;;;4967657;28;20057;-77
2022/09/26 06:55:50;;;;;;;8.20;3.20;;;12.50;99.90;;;;;;4963563;28;20361;-78
2022/09/26 06:58:16;;;;;;;7.90;2.92;;;12.60;99.90;;;;;;4958036;28;20027;-77
2022/09/26 07:00:42;;;;;;;8.95;3.28;;;12.50;99.90;;;;;;4964630;28;20023;-77
2022/09/26 07:03:14;;;;;;;11.93;3.25;;;12.60;99.90;;;;;;4958156;28;20045;-74
2022/09/26 07:05:40;;;;;;;9.32;3.17;;;12.60;99.90;;;;;;4962407;28;20039;-77
2022/09/26 07:08:06;;;;;;;16.88;3.40;;;12.50;99.90;;;;;;4964676;28;20023;-76
2022/09/26 07:10:33;;;;;;;8.00;3.33;;;12.50;99.90;;;;;;4963781;28;20038;-75
2022/09/26 07:13:06;;;;;;;9.82;3.40;;;12.40;99.90;;;;;;4946711;28;20046;-76
2022/09/26 07:15:33;;;;;;;8.32;3.25;;;12.30;99.90;;;;;;4964206;28;20029;-74
2022/09/26 07:18:03;;;;;;;10.35;3.05;;;12.40;99.90;;;;;;4961728;28;20034;-76
2022/09/26 07:20:32;;;;;;;8.27;3.03;;;12.40;99.90;;;;;;4944685;28;20110;-75
2022/09/26 07:23:08;;;;;;;8.18;2.85;;;12.40;99.90;;;;;;4962148;28;20031;-76
2022/09/26 07:25:33;;;;;;;6.85;2.80;;;12.40;99.90;;;;;;4963658;28;20035;-76
2022/09/26 07:28:00;;;;;;;9.45;2.92;;;12.30;99.90;;;;;;4962348;28;20311;-74
2022/09/26 07:30:27;;;;;;;7.72;3.22;;;12.40;99.90;;;;;;4958422;28;20034;-75
2022/09/26 07:32:57;;;;;;;5.68;3.00;;;12.50;99.90;;;;;;4966473;28;20589;-73
2022/09/26 07:35:23;;;;;;;8.23;2.83;;;12.50;99.90;;;;;;4961423;28;20030;-77
2022/09/26 07:37:51;;;;;;;9.00;3.13;;;12.50;99.90;;;;;;4964183;28;20487;-77
2022/09/26 07:40:19;;;;;;;8.90;2.90;;;12.50;99.90;;;;;;4961035;28;20168;-73
2022/09/26 07:42:45;;;;;;;7.72;3.17;;;12.60;99.90;;;;;;4963620;28;20034;-75
2022/09/26 07:45:13;;;;;;;7.43;2.58;;;12.60;99.90;;;;;;4961385;28;20038;-77
2022/09/26 07:50:23;;;;;;;5.07;2.53;;;12.60;99.90;;;;;;4965943;28;20463;-74
2022/09/26 07:52:49;;;;;;;8.27;3.08;;;12.60;99.90;;;;;;4968212;28;20038;-76
2022/09/26 07:55:23;;;;;;;5.90;2.75;;;12.60;99.90;;;;;;4959357;28;20022;-76
2022/09/26 07:57:49;;;;;;;8.75;2.58;;;12.60;99.90;;;;;;4956890;28;20035;-74
2022/09/26 08:00:17;;;;;;;5.70;2.53;;;12.60;99.90;;;;;;4967217;28;20027;-76
2022/09/26 08:02:45;;;;;;;5.90;2.35;;;12.60;99.90;;;;;;4963826;28;20467;-75
2022/09/26 08:05:18;;;;;;;7.30;2.47;;;12.60;99.90;;;;;;4960571;28;20118;-77
2022/09/26 08:07:47;;;;;;;9.15;3.28;;;12.70;99.90;;;;;;4956688;28;20035;-78
2022/09/26 08:10:19;;;;;;;9.55;2.97;;;12.70;99.90;;;;;;4966384;28;20027;-77
2022/09/26 08:12:46;;;;;;;12.18;2.65;;;12.80;99.90;;;;;;4969852;28;20026;-77
2022/09/26 08:15:12;;;;;;;5.25;2.33;;;12.80;99.90;;;;;;4963671;28;20033;-77
2022/09/26 08:17:40;;;;;;;4.97;2.60;;;12.80;99.90;;;;;;4960979;28;20306;-77
2022/09/26 08:20:11;;;;;;;8.45;2.33;;;12.90;99.90;;;;;;4950541;28;20023;-77
2022/09/26 08:22:39;;;;;;;5.10;1.85;;;12.80;99.90;;;;;;4963630;28;20023;-78
2022/09/26 08:25:08;;;;;;;11.50;2.50;;;12.80;99.90;;;;;;4952927;28;20090;-75
2022/09/26 08:27:34;;;;;;;4.50;2.50;;;12.80;99.90;;;;;;4958848;28;20456;-78
2022/09/26 08:30:03;;;;;;;8.73;3.53;;;12.70;99.90;;;;;;4955442;28;20058;-75
2022/09/26 08:32:31;;;;;;;10.50;2.40;;;12.70;99.90;;;;;;4961148;28;20425;-78
2022/09/26 08:34:57;;;;;;;5.18;2.20;;;12.80;99.90;;;;;;4951755;28;20119;-77
2022/09/26 08:37:26;;;;;;;7.43;2.70;;;12.70;99.90;;;;;;4959337;28;20101;-77
2022/09/26 08:39:52;;;;;;;3.55;2.10;;;12.80;99.90;;;;;;4942893;28;20090;-79
2022/09/26 08:43:03;;;;;;;7.55;2.08;;;12.70;99.90;;;;;;4944844;28;20031;-78
2022/09/26 08:49:22;;;;;;;10.85;3.50;;;12.60;99.90;;;;;;4962688;28;20081;-76
2022/09/26 08:51:51;;;;;;;6.32;2.75;;;12.90;99.90;;;;;;4939925;28;20034;-77
2022/09/26 08:54:23;;;;;;;9.77;2.17;;;12.90;99.90;;;;;;4949760;28;20029;-79
2022/09/26 08:56:59;;;;;;;8.32;2.08;;;12.90;99.90;;;;;;4960309;28;20029;-79
2022/09/26 08:59:24;;;;;;;3.28;2.13;;;12.90;99.90;;;;;;4948414;28;20171;-77
2022/09/26 09:01:53;;;;;;;5.97;2.22;;;13.00;99.90;;;;;;4948876;28;20138;-76
2022/09/26 09:04:25;;;;;;;8.40;2.50;;;12.90;99.90;;;;;;4962498;28;20356;-76
2022/09/26 09:07:06;;;;;;;9.02;2.28;;;12.90;99.90;;;;;;4951995;28;20685;-77
2022/09/26 09:09:32;;;;;;;3.08;2.10;;;12.70;99.90;;;;;;4961844;28;20030;-75
2022/09/26 09:12:35;;;;;;;6.28;2.50;;;12.70;99.90;;;;;;4961020;28;20024;-74
2022/09/26 09:15:32;;;;;;;4.03;1.83;;;12.70;99.90;;;;;;4959759;28;20031;-76
2022/09/26 09:18:15;;;;;;;7.10;2.47;;;12.80;99.90;;;;;;4967337;28;20388;-76
2022/09/26 09:21:17;;;;;;;5.03;2.10;;;12.80;99.90;;;;;;4964781;28;20039;-77
2022/09/26 09:24:07;;;;;;;4.50;2.03;;;12.70;99.90;;;;;;4962882;28;20030;-76
2022/09/26 09:27:11;;;;;;;7.15;2.25;;;12.80;99.90;;;;;;4962576;28;20114;-76
2022/09/26 09:30:12;;;;;;;4.97;1.80;;;12.80;99.90;;;;;;4946367;28;20436;-77
2022/09/26 09:32:55;;;;;;;5.45;2.30;;;12.60;99.90;;;;;;4948044;28;20082;-75
2022/09/26 09:36:00;;;;;;;5.22;1.92;;;12.60;99.90;;;;;;4964331;28;20023;-76
2022/09/26 09:38:32;;;;;;;4.05;2.15;;;12.70;99.90;;;;;;4962722;28;20030;-78
2022/09/26 09:41:00;;;;;;;;;;;12.70;99.90;;;;;;4968855;28;20035;-76
2022/09/26 09:43:38;;;;;;;4.97;2.33;;;12.70;99.90;;;;;;4967994;28;19913;-75
2022/09/26 09:46:38;;;;;;;10.13;2.30;;;12.80;99.90;;;;;;4966598;28;20026;-76
2022/09/26 09:49:06;;;;;;;5.00;2.08;;;12.70;99.90;;;;;;4953574;28;20035;-77
2022/09/26 09:52:09;;;;;;;2.28;1.80;;;12.70;99.90;;;;;;4966558;28;20046;-77
2022/09/26 09:54:55;;;;;;;3.20;1.60;;;12.70;99.90;;;;;;4962097;28;20034;-76
2022/09/26 09:57:45;;;;;;;6.18;2.50;;;12.70;99.90;;;;;;4898267;28;20060;-76
2022/09/26 10:00:16;;;;;;;4.93;2.03;;;12.90;99.90;;;;;;4951500;28;20031;-78
2022/09/26 10:03:02;;;;;;;3.00;1.75;;;12.90;99.90;;;;;;4964896;28;20045;-74
2022/09/26 10:05:46;;;;;;;7.82;1.90;;;12.80;99.90;;;;;;4966095;28;20050;-75
2022/09/26 10:08:18;;;;;;;2.92;1.90;;;12.90;99.90;;;;;;4949717;28;20068;-75
2022/09/26 10:11:11;;;;;;;8.35;2.15;;;12.90;99.90;;;;;;4962568;28;20497;-76
2022/09/26 10:13:42;;;;;;;2.72;2.10;;;13.00;99.90;;;;;;4949585;28;20161;-76
2022/09/26 10:16:10;;;;;;;7.85;2.33;;;13.00;99.90;;;;;;4967308;28;20436;-76
2022/09/26 10:19:03;;;;;;;6.32;1.77;;;13.00;99.90;;;;;;4958070;28;20061;-77
2022/09/26 10:21:46;;;;;;;8.02;1.85;;;13.10;99.90;;;;;;4950631;28;20091;-74
2022/09/26 10:24:33;;;;;;;4.32;2.25;;;13.20;99.90;;;;;;4953626;28;20094;-74
2022/09/26 10:27:15;;;;;;;3.67;1.80;;;13.30;99.90;;;;;;4963986;28;20035;-76
2022/09/26 10:29:46;;;;;;;2.78;1.85;;;13.20;99.90;;;;;;4962738;28;20098;-76
2022/09/26 10:32:12;;;;;;;2.70;1.70;;;13.30;99.90;;;;;;4962553;28;20024;-77
2022/09/26 10:34:38;;;;;;;2.70;1.50;;;13.40;99.90;;;;;;4946554;28;20073;-76
2022/09/26 10:37:35;;;;;;;15.45;1.80;;;13.30;99.90;;;;;;4961244;28;20019;-78
2022/09/26 10:42:46;;;;;;;8.43;1.98;;;13.30;99.90;;;;;;4960360;28;20069;-76
2022/09/26 10:45:26;;;;;;;6.22;1.80;;;13.40;99.90;;;;;;4963992;28;20222;-78
2022/09/26 10:47:54;;;;;;;1.92;1.65;;;13.50;99.90;;;;;;4964345;28;20028;-77
2022/09/26 10:50:27;;;;;;;4.82;1.40;;;13.70;99.90;;;;;;4967799;28;20026;-73
2022/09/26 10:53:02;;;;;;;4.35;1.90;;;13.70;99.90;;;;;;4965208;28;20033;-76
2022/09/26 10:55:49;;;;;;;5.57;1.88;;;13.80;99.90;;;;;;4966497;28;20023;-76
2022/09/26 10:58:23;;;;;;;7.18;2.03;;;13.80;99.90;;;;;;4965759;28;20023;-74
2022/09/26 11:00:50;;;;;;;7.07;2.45;;;13.80;99.90;;;;;;4959185;28;20054;-77
2022/09/26 11:03:20;;;;;;;3.92;2.30;;;13.90;99.90;;;;;;4967666;28;20023;-75
2022/09/26 11:05:55;;;;;;;5.85;2.00;;;14.00;99.90;;;;;;4964799;28;20332;-75
2022/09/26 11:08:21;;;;;;;6.43;1.95;;;13.90;99.90;;;;;;4956139;28;20467;-76
2022/09/26 11:10:51;;;;;;;10.18;1.83;;;14.00;99.90;;;;;;4966231;28;20486;-77
2022/09/26 11:13:22;;;;;;;2.58;1.52;;;13.90;99.90;;;;;;4953595;28;20441;-77
2022/09/26 11:16:00;;;;;;;3.35;1.90;;;14.20;99.90;;;;;;4967866;28;20067;-78
2022/09/26 11:18:51;;;;;;;8.85;2.03;;;14.20;99.90;;;;;;4962767;28;20055;-79
2022/09/26 11:21:26;;;;;;;7.70;1.90;;;14.20;99.90;;;;;;4963941;28;20174;-75
2022/09/26 11:24:24;;;;;;;2.80;1.63;;;14.20;99.90;;;;;;4963067;28;20349;-71
2022/09/26 11:26:52;;;;;;;6.88;2.35;;;14.10;99.90;;;;;;4961976;28;20526;-75
2022/09/26 11:29:32;;;;;;;5.28;1.63;;;14.10;99.90;;;;;;4963219;28;20034;-76
2022/09/26 11:32:04;;;;;;;6.28;1.70;;;14.20;99.90;;;;;;4962528;28;20059;-78
2022/09/26 11:34:33;;;;;;;8.73;2.38;;;14.10;99.90;;;;;;4962460;28;20086;-76
2022/09/26 11:37:16;;;;;;;6.50;1.98;;;14.10;99.90;;;;;;4947843;28;20336;-78
2022/09/26 11:39:53;;;;;;;7.07;2.22;;;14.10;99.90;;;;;;4961091;28;20023;-78
2022/09/26 11:42:42;;;;;;;3.28;1.60;;;14.10;99.90;;;;;;4963109;28;20027;-77
2022/09/26 11:45:18;;;;;;;4.45;1.95;;;14.00;99.90;;;;;;4964529;28;20104;-76
2022/09/26 11:48:11;;;;;;;4.13;1.77;;;14.00;99.90;;;;;;4961740;28;20089;-74
2022/09/26 11:50:45;;;;;;;5.47;1.90;;;13.90;99.90;;;;;;4959843;28;20061;-77
2022/09/26 11:53:33;;;;;;;8.45;2.08;;;14.00;99.90;;;;;;4963004;28;20101;-78
2022/09/26 11:56:28;;;;;;;8.35;2.58;;;13.90;99.90;;;;;;4946507;28;20206;-75
2022/09/26 11:58:53;;;;;;;4.30;2.33;;;13.90;99.90;;;;;;4946727;28;20022;-75
2022/09/26 12:01:44;;;;;;;5.22;2.28;;;13.90;99.90;;;;;;4964045;28;20023;-76
2022/09/26 12:04:28;;;;;;;4.70;1.98;;;13.80;99.90;;;;;;4950287;28;20344;-76
2022/09/26 12:07:02;;;;;;;8.30;2.00;;;13.70;99.90;;;;;;4942234;28;20032;-76
2022/09/26 12:09:55;;;;;;;6.40;2.25;;;13.50;99.90;;;;;;4961109;28;20019;-77
2022/09/26 12:12:41;;;;;;;8.20;2.47;;;13.40;99.90;;;;;;4958302;28;20031;-75
2022/09/26 12:15:13;;;;;;;9.02;2.30;;;13.40;99.90;;;;;;4947497;28;20034;-76
2022/09/26 12:18:13;;;;;;;4.00;2.40;;;13.20;99.90;;;;;;4941420;28;20137;-78
2022/09/26 12:21:03;;;;;;;4.38;2.53;;;13.20;99.90;;;;;;4962289;28;20031;-74
2022/09/26 12:23:47;;;;;;;2.67;2.20;;;13.10;99.90;;;;;;4957952;28;20058;-79
2022/09/26 12:26:20;;;;;;;5.10;2.70;;;13.20;99.90;;;;;;4960500;28;20077;-76
2022/09/26 12:29:00;;;;;;;6.40;2.45;;;13.20;99.90;;;;;;4955635;28;20100;-76
2022/09/26 12:31:49;;;;;;;5.80;2.65;;;13.00;99.90;;;;;;4959788;28;20030;-77
2022/09/26 12:34:36;;;;;;;4.13;2.70;;;12.80;99.90;;;;;;4963465;28;20042;-76
2022/09/26 12:37:04;;;;;;;5.40;2.72;;;12.80;99.90;;;;;;4944878;28;20077;-76
2022/09/26 12:39:56;;;;;;;8.02;2.58;;;12.90;99.90;;;;;;4960643;28;20028;-77
2022/09/26 12:42:31;;;;;;;6.70;2.75;;;13.00;99.90;;;;;;4962848;28;20029;-76
2022/09/26 12:45:03;;;;;;;8.45;2.80;;;12.90;99.90;;;;;;4961763;28;20038;-77
2022/09/26 12:47:43;;;;;;;6.85;2.90;;;12.80;99.90;;;;;;4965712;28;20038;-77
2022/09/26 12:50:32;;;;;;;7.45;2.85;;;12.90;99.90;;;;;;4962437;28;20941;-77
2022/09/26 12:53:00;;;;;;;6.30;2.97;;;12.90;99.90;;;;;;4960143;28;20043;-76
2022/09/26 12:55:47;;;;;;;8.27;2.88;;;12.90;99.90;;;;;;4965234;28;20138;-77
2022/09/26 12:58:31;;;;;;;10.43;3.30;;;12.70;99.90;;;;;;4944677;28;20460;-80
2022/09/26 13:01:24;;;;;;;10.80;3.05;;;12.60;99.90;;;;;;4964448;28;20086;-77
2022/09/26 13:04:12;;;;;;;6.43;3.78;;;12.50;99.90;;;;;;4964256;28;20035;-79
2022/09/26 13:06:40;;;;;;;10.15;3.10;;;12.50;99.90;;;;;;4955463;28;20452;-77
2022/09/26 13:09:30;;;;;;;4.35;3.05;;;12.50;99.90;;;;;;4956353;28;20030;-79
2022/09/26 13:12:15;;;;;;;8.60;3.00;;;12.50;99.90;;;;;;4962234;28;20464;-78
2022/09/26 13:14:51;;;;;;;5.32;2.90;;;12.50;99.90;;;;;;4967878;28;20109;-77
2022/09/26 13:17:23;;;;;;;6.50;2.90;;;12.50;99.90;;;;;;4959975;28;20045;-80
2022/09/26 13:19:57;;;;;;;4.97;2.90;;;12.50;99.90;;;;;;4959050;28;20392;-77
2022/09/26 13:22:44;;;;;;;9.52;3.15;;;12.50;99.90;;;;;;4956646;28;20022;-77
2022/09/26 13:25:10;;;;;;;11.45;3.08;;;12.50;99.90;;;;;;4944911;28;20314;-78
2022/09/26 13:27:47;;;;;;;13.70;3.20;;;12.50;99.90;;;;;;4948502;28;20074;-78
2022/09/26 13:30:21;;;;;;;3.42;2.83;;;12.50;99.90;;;;;;4954657;28;20110;-77